Archival Weather

Granbury Rgnl

Granbury, Texas (KGDJ)

Report from: Monday, January 29, 2024 12:35 AM UTC
Current time: Tuesday, June 18, 2024 1:47 PM UTC

Current weather – Weather history – Daily summaries
Weather forecast

Temperature12.1°C (53.8°F)
Dew point3.1°C (37.6°F)
Winds Calm
Visibility10 mi. (16.1 km)
Clouds Sky clear
Altimeter30.35 in.Hg (1028 mB)
Relative humidity54 %
Density altitude-720 ft. (-219 m)
Remarks Fully automated report
Automated weather observing station with precipitation discriminator
Flight conditions Visual Meteorological Conditions
Raw dataKGDJ 290035Z AUTO 00000KT 10SM CLR 12/03 A3035 RMK AO2 T01210031
An error has occurred. This application may no longer respond until reloaded. Reload 🗙